0NK1 weather

Spring Brook Airport
Central Square, New York, United States

Public forecast

Using degrees Fahrenheit for public forecast. Weather courtesy of forecast.io.

Closest aviation weather report (METAR) to Spring Brook Airport

Closest report is Oswego County Airport, 7.4 nm (13.6 km) W. Retrieved 2019/10/18 14:54 UTC (19 minutes ago):

KFZY 181454Z AUTO 32007KT 10SM OVC025 07/02 A2994 RMK AO2 SLP139 T00720017 53012

Closest aviation forecast (TAF) to Spring Brook Airport

Forecast is more than 6 hours old.

Closest forecast is Syracuse Hancock International Airport, 15.8 nm (29.3 km) SSE. Retrieved 2019/10/18 06:22 UTC (9 hours ago):

TAF KSYR 180520Z 1806/1906 30010KT P6SM OVC025 FM181700 30010G18KT P6SM OVC025 FM182300 28007KT P6SM BKN035